createdAt,value
2022-11-10T00:00:36.828Z,99968.42
2022-11-10T00:03:20.875Z,99972.60
2022-11-10T00:06:06.755Z,99968.52
2022-11-10T00:08:50.372Z,99974.73
2022-11-10T00:11:34.079Z,99969.56
2022-11-10T00:14:33.740Z,99973.24
2022-11-10T00:17:17.314Z,99980.41
2022-11-10T00:20:01.103Z,99981.24
2022-11-10T00:22:44.835Z,99980.07
2022-11-10T00:25:28.911Z,99983.35
2022-11-10T00:28:12.624Z,99987.05
2022-11-10T00:30:55.164Z,99986.55
2022-11-10T00:33:40.776Z,99991.14
2022-11-10T00:36:24.995Z,99989.73
2022-11-10T00:39:09.035Z,99993.70
2022-11-10T00:41:52.519Z,100000.12
2022-11-10T00:44:36.266Z,99999.00
2022-11-10T00:47:18.871Z,99995.20
2022-11-10T00:50:02.517Z,99997.61
2022-11-10T00:52:45.063Z,99998.30
2022-11-10T00:55:28.704Z,99992.17
2022-11-10T00:58:12.454Z,99987.69
2022-11-10T01:01:04.017Z,99990.36
2022-11-10T01:03:47.823Z,99988.66
2022-11-10T01:06:31.517Z,99982.73
2022-11-10T01:09:15.397Z,99981.48
2022-11-10T01:11:59.016Z,99983.58
2022-11-10T01:14:42.639Z,99984.83
2022-11-10T01:17:26.254Z,99981.98
2022-11-10T01:20:10.152Z,99987.73
2022-11-10T01:22:53.792Z,99987.75
2022-11-10T01:25:37.680Z,99988.83
2022-11-10T01:28:21.337Z,99986.65
2022-11-10T01:31:07.463Z,99988.21
2022-11-10T01:33:51.059Z,99983.87
2022-11-10T01:36:34.743Z,99990.60
2022-11-10T01:39:18.389Z,99987.46
2022-11-10T01:42:02.004Z,99987.34
2022-11-10T01:45:20.643Z,99992.23
2022-11-10T01:48:06.685Z,99991.64
2022-11-10T01:50:50.358Z,99995.41
2022-11-10T01:53:36.306Z,99996.77
2022-11-10T01:56:20.990Z,99995.02
2022-11-10T01:59:09.840Z,99996.54
2022-11-10T02:01:56.373Z,99998.23
2022-11-10T02:04:41.390Z,99995.91
2022-11-10T02:07:24.943Z,100010.27
2022-11-10T02:10:20.392Z,100012.44
2022-11-10T02:13:03.019Z,100014.63
2022-11-10T02:15:46.744Z,100015.73
2022-11-10T02:18:30.448Z,100012.37
2022-11-10T02:21:17.258Z,100019.04
2022-11-10T02:23:59.828Z,100021.37
2022-11-10T02:26:49.989Z,100018.33
2022-11-10T02:29:33.809Z,100011.02
2022-11-10T02:32:17.554Z,100006.52
2022-11-10T02:35:01.201Z,99991.75
2022-11-10T02:37:44.757Z,100004.85
2022-11-10T02:40:28.465Z,100017.70
2022-11-10T02:43:16.092Z,100025.34
2022-11-10T02:45:59.774Z,100033.61
2022-11-10T02:48:43.431Z,100037.65
2022-11-10T02:51:27.066Z,100030.80
2022-11-10T02:54:10.703Z,100019.16
2022-11-10T02:56:54.431Z,100019.67
2022-11-10T02:59:38.066Z,100025.51
2022-11-10T03:02:21.766Z,100031.12
2022-11-10T03:05:05.430Z,100036.27
2022-11-10T03:07:59.384Z,100032.23
2022-11-10T03:10:41.962Z,100034.40
2022-11-10T03:13:32.246Z,100024.41
2022-11-10T03:16:29.018Z,100038.60
2022-11-10T03:19:12.570Z,100041.95
2022-11-10T03:21:56.193Z,100040.34
2022-11-10T03:24:39.813Z,100042.73
2022-11-10T03:27:23.538Z,100045.30
2022-11-10T03:30:08.057Z,100049.17
2022-11-10T03:32:51.613Z,100048.02
2022-11-10T03:35:34.337Z,100053.30
2022-11-10T03:38:17.964Z,100055.39
2022-11-10T03:41:18.668Z,100055.67
2022-11-10T03:44:03.414Z,100054.10
2022-11-10T03:46:51.334Z,100053.09
2022-11-10T03:49:35.248Z,100056.64
2022-11-10T03:52:19.874Z,100053.95
2022-11-10T03:55:03.886Z,100055.34
2022-11-10T03:57:47.648Z,100063.27
2022-11-10T04:00:31.333Z,100063.11
2022-11-10T04:03:14.991Z,100059.83
2022-11-10T04:06:14.649Z,100054.47
2022-11-10T04:09:01.262Z,100056.53
2022-11-10T04:11:59.845Z,100061.67
2022-11-10T04:14:58.354Z,100053.00
2022-11-10T04:17:48.108Z,100059.02
2022-11-10T04:20:31.716Z,100052.14
2022-11-10T04:23:32.089Z,100053.50
2022-11-10T04:26:31.751Z,100053.45
2022-11-10T04:29:18.425Z,100055.47
2022-11-10T04:32:02.237Z,100063.11
2022-11-10T04:34:45.847Z,100064.52
2022-11-10T04:37:29.463Z,100065.80
2022-11-10T04:40:13.099Z,100068.26
2022-11-10T04:42:56.750Z,100070.59
2022-11-10T04:45:40.546Z,100073.16
2022-11-10T04:48:25.415Z,100065.90
2022-11-10T04:51:08.129Z,100070.95
2022-11-10T04:53:52.770Z,100066.16
2022-11-10T04:56:37.148Z,100066.06
2022-11-10T04:59:21.884Z,100064.71
2022-11-10T05:02:05.477Z,100060.77
2022-11-10T05:04:49.107Z,100059.54
2022-11-10T05:07:32.758Z,100065.98
2022-11-10T05:10:16.409Z,100067.82
2022-11-10T05:13:00.680Z,100071.51
2022-11-10T05:15:45.328Z,100082.53
2022-11-10T05:18:28.080Z,100083.60
2022-11-10T05:21:11.711Z,100076.86
2022-11-10T05:23:55.311Z,100087.17
2022-11-10T05:26:38.937Z,100088.34
2022-11-10T05:29:22.586Z,100094.20
2022-11-10T05:32:06.241Z,100097.86
2022-11-10T05:34:49.841Z,100105.61
2022-11-10T05:37:33.687Z,100111.26
2022-11-10T05:40:17.596Z,100117.56
2022-11-10T05:43:01.811Z,100121.05
2022-11-10T05:45:45.580Z,100124.30
2022-11-10T05:48:29.220Z,100129.58
2022-11-10T05:51:12.971Z,100135.52
2022-11-10T05:53:56.561Z,100138.17
2022-11-10T05:56:40.177Z,100142.55
2022-11-10T05:59:23.833Z,100151.43
2022-11-10T06:02:07.441Z,100150.01
2022-11-10T06:04:50.217Z,100147.11
2022-11-10T06:07:33.818Z,100158.09
2022-11-10T06:10:17.625Z,100160.10
2022-11-10T06:13:02.162Z,100162.45
2022-11-10T06:15:50.152Z,100173.36
2022-11-10T06:18:34.301Z,100182.00
2022-11-10T06:21:16.906Z,100180.35
2022-11-10T06:24:00.561Z,100185.55
2022-11-10T06:26:44.224Z,100198.09
2022-11-10T06:29:27.948Z,100196.53
2022-11-10T06:32:11.856Z,100198.23
2022-11-10T06:35:00.333Z,100203.02
2022-11-10T06:37:44.452Z,100215.14
2022-11-10T06:40:29.556Z,100220.23
2022-11-10T06:43:15.022Z,100220.74
2022-11-10T06:45:59.092Z,100221.25
2022-11-10T06:48:43.632Z,100234.27
2022-11-10T06:51:27.260Z,100238.25
2022-11-10T06:54:10.039Z,100236.80
2022-11-10T06:56:53.608Z,100245.89
2022-11-10T06:59:37.293Z,100251.33
2022-11-10T07:02:20.210Z,100254.03
2022-11-10T07:05:04.046Z,100253.50
2022-11-10T07:07:49.214Z,100258.20
2022-11-10T07:10:33.117Z,100260.45
2022-11-10T07:13:16.937Z,100263.80
2022-11-10T07:16:07.751Z,100269.81
2022-11-10T07:18:51.346Z,100272.05
2022-11-10T07:21:34.005Z,100280.89
2022-11-10T07:24:17.586Z,100291.85
2022-11-10T07:27:01.500Z,100299.86
2022-11-10T07:29:45.181Z,100305.83
2022-11-10T07:32:29.866Z,100304.31
2022-11-10T07:35:13.558Z,100304.96
2022-11-10T07:37:58.483Z,100306.45
2022-11-10T07:40:42.118Z,100310.14
2022-11-10T07:43:25.923Z,100307.01
2022-11-10T07:46:09.811Z,100301.10
2022-11-10T07:48:53.557Z,100315.67
2022-11-10T07:51:37.146Z,100317.11
2022-11-10T07:54:21.023Z,100317.02
2022-11-10T07:57:04.694Z,100315.42
2022-11-10T07:59:48.356Z,100316.48
2022-11-10T08:02:32.196Z,100321.59
2022-11-10T08:05:15.803Z,100323.17
2022-11-10T08:08:00.541Z,100331.45
2022-11-10T08:10:44.794Z,100332.91
2022-11-10T08:13:28.439Z,100338.45
2022-11-10T08:16:12.112Z,100337.94
2022-11-10T08:18:55.773Z,100335.12
2022-11-10T08:21:39.448Z,100342.00
2022-11-10T08:24:22.068Z,100358.39
2022-11-10T08:27:06.841Z,100364.57
2022-11-10T08:29:50.439Z,100360.11
2022-11-10T08:32:34.176Z,100359.98
2022-11-10T08:35:17.766Z,100368.67
2022-11-10T08:38:13.492Z,100372.95
2022-11-10T08:40:57.635Z,100376.84
2022-11-10T08:43:41.885Z,100384.92
2022-11-10T08:46:25.469Z,100391.39
2022-11-10T08:49:09.198Z,100402.91
2022-11-10T08:51:52.870Z,100408.20
2022-11-10T08:54:36.486Z,100412.65
2022-11-10T08:57:20.211Z,100414.86
2022-11-10T09:00:04.722Z,100416.04
2022-11-10T09:02:48.413Z,100419.10
2022-11-10T09:05:31.060Z,100423.44
2022-11-10T09:08:15.870Z,100424.88
2022-11-10T09:11:04.067Z,100426.05
2022-11-10T09:13:47.618Z,100428.26
2022-11-10T09:16:31.221Z,100433.35
2022-11-10T09:19:19.697Z,100439.42
2022-11-10T09:22:03.969Z,100444.70
2022-11-10T09:24:47.554Z,100444.84
2022-11-10T09:27:30.769Z,100448.48
2022-11-10T09:30:17.895Z,100455.14
2022-11-10T09:33:01.929Z,100460.77
2022-11-10T09:35:46.744Z,100464.90
2022-11-10T09:38:31.288Z,100464.04
2022-11-10T09:41:15.236Z,100467.90
2022-11-10T09:44:14.251Z,100467.63
2022-11-10T09:47:05.361Z,100470.29
2022-11-10T09:50:01.842Z,100470.19
2022-11-10T09:52:49.181Z,100470.57
2022-11-10T09:55:43.561Z,100469.48
2022-11-10T09:58:35.264Z,100468.95
2022-11-10T10:01:33.862Z,100473.59
2022-11-10T10:04:52.130Z,100476.41
2022-11-10T10:07:41.796Z,100478.69
2022-11-10T10:10:34.558Z,100485.63
2022-11-10T10:13:36.726Z,100490.89
2022-11-10T10:16:38.190Z,100498.80
2022-11-10T10:19:42.299Z,100500.81
2022-11-10T10:22:47.908Z,100497.88
2022-11-10T10:25:32.743Z,100492.36
2022-11-10T10:28:32.295Z,100489.20
2022-11-10T10:31:27.009Z,100487.05
2022-11-10T10:34:23.126Z,100488.87
2022-11-10T10:37:27.163Z,100499.92
2022-11-10T10:40:21.909Z,100504.52
2022-11-10T10:43:05.638Z,100507.58
2022-11-10T10:46:11.848Z,100502.25
2022-11-10T10:49:28.202Z,100500.20
2022-11-10T10:52:15.727Z,100505.98
2022-11-10T10:55:07.930Z,100509.41
2022-11-10T10:57:56.730Z,100512.86
2022-11-10T11:00:48.453Z,100510.95
2022-11-10T11:03:53.239Z,100526.31
2022-11-10T11:06:37.050Z,100522.00
2022-11-10T11:09:35.512Z,100523.10
2022-11-10T11:12:18.001Z,100527.36
2022-11-10T11:15:23.178Z,100532.37
2022-11-10T11:18:17.197Z,100536.70
2022-11-10T11:21:16.673Z,100537.16
2022-11-10T11:24:17.884Z,100544.49
2022-11-10T11:27:27.970Z,100552.44
2022-11-10T11:30:16.775Z,100555.11
2022-11-10T11:33:25.958Z,100556.50
2022-11-10T11:36:09.445Z,100558.50
2022-11-10T11:39:24.939Z,100560.04
2022-11-10T11:42:40.603Z,100562.00
2022-11-10T11:45:36.734Z,100563.00
2022-11-10T11:48:36.401Z,100564.80
2022-11-10T11:51:28.126Z,100564.54
2022-11-10T11:54:33.741Z,100570.67
2022-11-10T11:57:37.219Z,100571.67
2022-11-10T12:00:24.279Z,100575.63
2022-11-10T12:03:47.692Z,100582.52
2022-11-10T12:06:59.466Z,100580.59
2022-11-10T12:09:51.077Z,100574.59
2022-11-10T12:12:40.792Z,100585.19
2022-11-10T12:15:24.491Z,100579.64
2022-11-10T12:18:28.376Z,100581.73
2022-11-10T12:21:27.881Z,100589.39
2022-11-10T12:24:18.083Z,100586.34
2022-11-10T12:27:23.776Z,100592.35
2022-11-10T12:30:14.376Z,100594.05
2022-11-10T12:33:04.383Z,100596.06
2022-11-10T12:35:48.333Z,100604.71
2022-11-10T12:38:46.757Z,100604.73
2022-11-10T12:41:39.046Z,100610.61
2022-11-10T12:44:36.393Z,100613.27
2022-11-10T12:47:22.446Z,100617.58
2022-11-10T12:50:25.578Z,100625.93
2022-11-10T12:53:37.925Z,100624.80
2022-11-10T12:56:39.380Z,100626.54
2022-11-10T12:59:21.882Z,100624.49
2022-11-10T13:02:16.791Z,100624.73
2022-11-10T13:05:24.155Z,100634.23
2022-11-10T13:08:27.185Z,100635.22
2022-11-10T13:11:11.708Z,100640.85
2022-11-10T13:14:00.205Z,100643.52
2022-11-10T13:16:48.425Z,100651.35
2022-11-10T13:19:33.825Z,100656.11
2022-11-10T13:22:37.580Z,100659.86
2022-11-10T13:25:41.419Z,100667.12
2022-11-10T13:28:45.979Z,100673.38
2022-11-10T13:31:30.940Z,100677.73
2022-11-10T13:34:35.737Z,100683.65
2022-11-10T13:37:35.266Z,100687.48
2022-11-10T13:40:25.057Z,100684.68
2022-11-10T13:43:22.025Z,100699.33
2022-11-10T13:46:07.072Z,100699.68
2022-11-10T13:48:53.784Z,100707.19
2022-11-10T13:52:05.804Z,100711.37
2022-11-10T13:55:02.929Z,100712.94
2022-11-10T13:57:57.341Z,100713.54
2022-11-10T14:00:40.959Z,100710.33
2022-11-10T14:03:46.618Z,100717.30
2022-11-10T14:06:40.481Z,100718.06
2022-11-10T14:09:45.929Z,100718.81
2022-11-10T14:12:35.693Z,100728.48
2022-11-10T14:15:22.717Z,100729.43
2022-11-10T14:18:37.041Z,100731.23
2022-11-10T14:21:27.347Z,100739.14
2022-11-10T14:24:22.777Z,100748.77
2022-11-10T14:27:15.704Z,100755.02
2022-11-10T14:30:03.784Z,100766.48
2022-11-10T14:33:14.302Z,100770.59
2022-11-10T14:36:02.765Z,100774.79
2022-11-10T14:38:47.025Z,100773.34
2022-11-10T14:41:30.882Z,100781.33
2022-11-10T14:44:24.629Z,100782.71
2022-11-10T14:47:30.911Z,100785.02
2022-11-10T14:50:14.419Z,100791.65
2022-11-10T14:53:02.207Z,100793.25
2022-11-10T14:55:51.892Z,100798.51
2022-11-10T14:58:39.777Z,100796.46
2022-11-10T15:01:35.088Z,100800.98
2022-11-10T15:04:19.642Z,100803.77
2022-11-10T15:07:03.713Z,100808.39
2022-11-10T15:10:08.026Z,100813.38
2022-11-10T15:13:18.447Z,100813.97
2022-11-10T15:16:27.077Z,100821.19
2022-11-10T15:19:28.368Z,100825.44
2022-11-10T15:22:20.907Z,100832.54
2022-11-10T15:25:17.169Z,100834.59
2022-11-10T15:28:06.629Z,100839.00
2022-11-10T15:31:02.561Z,100842.98
2022-11-10T15:33:48.581Z,100846.45
2022-11-10T15:36:34.569Z,100856.03
2022-11-10T15:39:23.325Z,100866.77
2022-11-10T15:42:24.543Z,100867.14
2022-11-10T15:45:08.440Z,100874.13
2022-11-10T15:47:51.326Z,100882.92
2022-11-10T15:50:34.931Z,100893.77
2022-11-10T15:53:25.741Z,100901.77
2022-11-10T15:56:14.264Z,100910.80
2022-11-10T15:59:02.085Z,100915.19
2022-11-10T16:01:46.429Z,100923.66
2022-11-10T16:04:29.122Z,100918.80
2022-11-10T16:07:13.848Z,100924.46
2022-11-10T16:09:57.809Z,100929.52
2022-11-10T16:12:41.480Z,100930.86
2022-11-10T16:15:24.159Z,100943.23
2022-11-10T16:18:17.102Z,100947.71
2022-11-10T16:21:00.723Z,100949.93
2022-11-10T16:23:44.475Z,100952.39
2022-11-10T16:26:29.669Z,100952.22
2022-11-10T16:29:17.090Z,100961.24
2022-11-10T16:32:00.816Z,100967.20
2022-11-10T16:34:44.432Z,100965.23
2022-11-10T16:37:29.799Z,100962.04
2022-11-10T16:40:18.733Z,100965.77
2022-11-10T16:43:02.462Z,100963.39
2022-11-10T16:45:47.679Z,100963.30
2022-11-10T16:48:34.058Z,100967.01
2022-11-10T16:51:18.189Z,100960.52
2022-11-10T16:54:02.644Z,100955.20
2022-11-10T16:56:46.252Z,100956.54
2022-11-10T16:59:28.837Z,100956.41
2022-11-10T17:02:26.382Z,100960.40
2022-11-10T17:05:14.362Z,100964.29
2022-11-10T17:07:58.946Z,100974.47
2022-11-10T17:10:42.653Z,100977.59
2022-11-10T17:13:26.293Z,100987.02
2022-11-10T17:16:28.292Z,100987.83
2022-11-10T17:19:19.262Z,100988.29
2022-11-10T17:22:01.897Z,100992.74
2022-11-10T17:24:52.343Z,100999.40
2022-11-10T17:27:38.006Z,100997.21
2022-11-10T17:30:22.362Z,100994.33
2022-11-10T17:33:07.257Z,100986.15
2022-11-10T17:35:52.412Z,100987.42
2022-11-10T17:38:36.268Z,100992.68
2022-11-10T17:41:19.914Z,100991.66
2022-11-10T17:44:03.754Z,100996.17
2022-11-10T17:46:47.401Z,100997.33
2022-11-10T17:49:30.014Z,101001.98
2022-11-10T17:52:18.433Z,101002.96
2022-11-10T17:55:02.306Z,101005.70
2022-11-10T17:57:46.360Z,101005.47
2022-11-10T18:00:29.834Z,101002.45
2022-11-10T18:03:18.712Z,101002.02
2022-11-10T18:06:06.133Z,101005.05
2022-11-10T18:08:49.727Z,101007.28
2022-11-10T18:11:33.522Z,101011.91
2022-11-10T18:14:17.088Z,101012.33
2022-11-10T18:17:00.799Z,101016.11
2022-11-10T18:19:44.362Z,101020.55
2022-11-10T18:22:28.099Z,101022.51
2022-11-10T18:25:12.833Z,101025.71
2022-11-10T18:27:56.467Z,101029.67
2022-11-10T18:30:41.123Z,101029.64
2022-11-10T18:33:25.122Z,101037.40
2022-11-10T18:36:09.281Z,101038.98
2022-11-10T18:38:51.878Z,101043.88
2022-11-10T18:41:50.645Z,101045.17
2022-11-10T18:44:37.132Z,101047.04
2022-11-10T18:47:21.102Z,101051.69
2022-11-10T18:50:05.394Z,101058.98
2022-11-10T18:52:49.132Z,101066.14
2022-11-10T18:55:32.879Z,101078.09
2022-11-10T18:58:16.484Z,101083.98
2022-11-10T19:01:05.610Z,101083.95
2022-11-10T19:03:49.451Z,101073.83
2022-11-10T19:06:32.144Z,101068.67
2022-11-10T19:09:14.958Z,101071.27
2022-11-10T19:11:58.616Z,101070.02
2022-11-10T19:14:42.240Z,101073.52
2022-11-10T19:17:26.915Z,101081.38
2022-11-10T19:20:12.765Z,101079.66
2022-11-10T19:22:56.489Z,101080.42
2022-11-10T19:25:40.407Z,101080.20
2022-11-10T19:28:22.961Z,101082.14
2022-11-10T19:31:12.268Z,101079.17
2022-11-10T19:33:57.252Z,101074.46
2022-11-10T19:36:39.798Z,101071.85
2022-11-10T19:39:23.513Z,101073.02
2022-11-10T19:42:06.044Z,101073.27
2022-11-10T19:44:49.603Z,101078.52
2022-11-10T19:47:33.285Z,101080.21
2022-11-10T19:50:16.218Z,101086.17
2022-11-10T19:52:59.963Z,101085.83
2022-11-10T19:55:43.644Z,101086.25
2022-11-10T19:58:27.567Z,101089.94
2022-11-10T20:01:11.973Z,101086.30
2022-11-10T20:03:55.762Z,101087.44
2022-11-10T20:06:39.398Z,101085.80
2022-11-10T20:09:23.035Z,101087.90
2022-11-10T20:12:06.836Z,101087.80
2022-11-10T20:14:50.560Z,101084.02
2022-11-10T20:17:33.252Z,101086.11
2022-11-10T20:20:16.613Z,101085.90
2022-11-10T20:23:02.236Z,101092.68
2022-11-10T20:25:45.965Z,101089.61
2022-11-10T20:28:29.561Z,101091.97
2022-11-10T20:31:21.153Z,101084.61
2022-11-10T20:34:04.817Z,101086.09
2022-11-10T20:36:48.528Z,101089.61
2022-11-10T20:39:32.235Z,101090.48
2022-11-10T20:42:15.815Z,101092.61
2022-11-10T20:44:59.744Z,101094.91
2022-11-10T20:47:43.362Z,101095.65
2022-11-10T20:50:26.003Z,101097.17
2022-11-10T20:53:09.988Z,101099.78
2022-11-10T20:55:58.471Z,101100.22
2022-11-10T20:58:42.225Z,101096.36
2022-11-10T21:01:26.219Z,101102.90
2022-11-10T21:04:10.827Z,101104.97
2022-11-10T21:06:54.703Z,101103.39
2022-11-10T21:09:38.431Z,101103.08
2022-11-10T21:12:38.017Z,101110.69
2022-11-10T21:15:21.638Z,101112.52
2022-11-10T21:18:05.287Z,101107.33
2022-11-10T21:20:48.206Z,101110.84
2022-11-10T21:23:31.855Z,101112.73
2022-11-10T21:26:15.784Z,101112.83
2022-11-10T21:29:00.562Z,101115.17
2022-11-10T21:31:44.507Z,101122.92
2022-11-10T21:34:28.105Z,101123.85
2022-11-10T21:37:11.733Z,101121.33
2022-11-10T21:39:55.730Z,101122.73
2022-11-10T21:42:39.327Z,101121.79
2022-11-10T21:45:23.178Z,101127.83
2022-11-10T21:48:07.893Z,101134.10
2022-11-10T21:50:51.550Z,101136.02
2022-11-10T21:53:36.468Z,101138.01
2022-11-10T21:56:20.189Z,101137.30
2022-11-10T21:59:04.358Z,101137.73
2022-11-10T22:01:47.885Z,101136.71
2022-11-10T22:04:31.679Z,101137.95
2022-11-10T22:07:31.509Z,101139.04
2022-11-10T22:10:31.583Z,101139.54
2022-11-10T22:13:32.420Z,101142.85
2022-11-10T22:17:02.962Z,101146.06
2022-11-10T22:19:46.618Z,101150.45
2022-11-10T22:22:30.176Z,101156.34
2022-11-10T22:25:13.922Z,101156.23
2022-11-10T22:27:57.631Z,101161.26
2022-11-10T22:30:40.253Z,101169.85
2022-11-10T22:33:32.267Z,101167.48
2022-11-10T22:36:16.949Z,101168.49
2022-11-10T22:39:03.765Z,101164.50
2022-11-10T22:42:03.764Z,101170.41
2022-11-10T22:44:47.337Z,101169.82
2022-11-10T22:47:50.965Z,101174.87
2022-11-10T22:50:34.569Z,101181.20
2022-11-10T22:53:17.158Z,101182.00
2022-11-10T22:56:00.895Z,101186.88
2022-11-10T22:58:46.706Z,101184.52
2022-11-10T23:01:31.696Z,101185.48
2022-11-10T23:04:16.154Z,101186.85
2022-11-10T23:06:59.929Z,101189.66
2022-11-10T23:09:43.561Z,101195.48
2022-11-10T23:12:27.164Z,101195.55
2022-11-10T23:15:11.073Z,101189.66
2022-11-10T23:17:55.658Z,101192.91
2022-11-10T23:20:39.294Z,101185.55
2022-11-10T23:23:23.266Z,101180.52
2022-11-10T23:26:12.195Z,101182.54
2022-11-10T23:28:55.089Z,101181.19
2022-11-10T23:31:38.816Z,101188.27
2022-11-10T23:34:22.403Z,101185.92
2022-11-10T23:37:06.040Z,101184.79
2022-11-10T23:39:49.683Z,101181.90
2022-11-10T23:42:33.182Z,101178.12
2022-11-10T23:45:17.025Z,101178.96
2022-11-10T23:48:04.348Z,101182.50
2022-11-10T23:50:50.533Z,101185.70
2022-11-10T23:53:34.586Z,101185.50
2022-11-10T23:56:19.245Z,101186.63
2022-11-10T23:59:02.992Z,101181.59
